aviador You're here:

KPNS Decoded Metar

PENSACOLA in FL, USA
Report Time2017-04-29 16:53:00
UTC Time2017-04-29 17:44:43
Flight Rules ifr IFR
Wind140° at 16 Gusting to 22 kt
W.Decomp.*RWY 17: 14.1 kt HW 7.5 kt LCW
RWY 08: 7.5 kt HW 14.1 kt RCW
W.Rank140° ranks 6
Current wind is above 140° avg. (8.2)
Visibility9999 m
Phenomena:N/A
Clouds:Overcast 008 Hf
Expected CloudBase > 2,000 ft AGL from Temp-Dew spread
Ceiling800 ft
Temp27°C (ISA +12)
Dew Point22°C (74% RH)
Heat Index29.2°C
AAT25.9°C
QNH1018 hPa
Density Alt1,716 ft
Elevation125 ft
Report Wrong Elevation
Raw Report
KPNS 291653Z 14016G22KT 10SM OVC008 27/22 A3006=

Extra information for KPNS:More info

Metar Taf Metar & Taf Last 4 Metars F.Rules Stats Wind Profile Meteogram Temp Stats Airport Information Weather charts Add Link Nearby VenuesMetar ALERT Operation Metar Decoded Social comments

AIRNAV info for KPNS